<?xml version="1.0" encoding="UTF-8" standalone="no" ?>
<gpx xmlns="http://www.topografix.com/GPX/1/1" xmlns:xsi="http://www.w3.org/2001/XMLSchema-instance" xsi:schemaLocation="http://www.topografix.com/GPX/1/1 http://www.topografix.com/GPX/1/1/gpx.xsd" version="1.1" creator="VisuGPX - https://www.visugpx.com">
  <metadata>
    <name>ChailléOrmeaux_Boucles_19km</name>
    <desc><![CDATA[gnerando idor:6553433_6553489_6956451_7846715_7847315_8111388_8144845]]></desc>
  </metadata>
  <trk>
    <name><![CDATA[ChailleO_BouclesYonSud_18.5km-8111388]]></name>
    <extensions>
      <line xmlns="http://www.topografix.com/GPX/gpx_style/0/2">
        <color>00FF00</color>
        <width>4</width>
      </line>
    </extensions>
    <trkseg>
      <trkpt lat="46.58388" lon="-1.36535">
        <ele>42</ele>
        <time>2023-10-31T20:58:23Z</time>
      </trkpt>
      <trkpt lat="46.58355" lon="-1.36659">
        <ele>45</ele>
        <time>2023-10-31T21:00:25Z</time>
      </trkpt>
      <trkpt lat="46.58178" lon="-1.36715">
        <ele>39</ele>
        <time>2023-10-31T21:04:27Z</time>
      </trkpt>
      <trkpt lat="46.58051" lon="-1.37067">
        <ele>52</ele>
        <time>2023-10-31T21:10:31Z</time>
      </trkpt>
      <trkpt lat="46.57995" lon="-1.36985">
        <ele>53</ele>
        <time>2023-10-31T21:12:17Z</time>
      </trkpt>
      <trkpt lat="46.57845" lon="-1.37084">
        <ele>58</ele>
        <time>2023-10-31T21:15:57Z</time>
      </trkpt>
      <trkpt lat="46.57641" lon="-1.3738">
        <ele>67</ele>
        <time>2023-10-31T21:22:22Z</time>
      </trkpt>
      <trkpt lat="46.57538" lon="-1.37539">
        <ele>64</ele>
        <time>2023-10-31T21:25:42Z</time>
      </trkpt>
      <trkpt lat="46.57273" lon="-1.37741">
        <ele>67</ele>
        <time>2023-10-31T21:32:21Z</time>
      </trkpt>
      <trkpt lat="46.57169" lon="-1.37724">
        <ele>67</ele>
        <time>2023-10-31T21:34:41Z</time>
      </trkpt>
      <trkpt lat="46.57101" lon="-1.37784">
        <ele>69</ele>
        <time>2023-10-31T21:36:27Z</time>
      </trkpt>
      <trkpt lat="46.56942" lon="-1.37655">
        <ele>75</ele>
        <time>2023-10-31T21:40:30Z</time>
      </trkpt>
      <trkpt lat="46.56871" lon="-1.37788">
        <ele>75</ele>
        <time>2023-10-31T21:43:05Z</time>
      </trkpt>
      <trkpt lat="46.56405" lon="-1.37144">
        <ele>69</ele>
        <time>2023-10-31T21:57:22Z</time>
      </trkpt>
      <trkpt lat="46.5647" lon="-1.36908">
        <ele>72</ele>
        <time>2023-10-31T22:01:16Z</time>
      </trkpt>
      <trkpt lat="46.56606" lon="-1.36732">
        <ele>69</ele>
        <time>2023-10-31T22:05:18Z</time>
      </trkpt>
      <trkpt lat="46.56629" lon="-1.36144">
        <ele>64</ele>
        <time>2023-10-31T22:14:19Z</time>
      </trkpt>
      <trkpt lat="46.56594" lon="-1.35943">
        <ele>59</ele>
        <time>2023-10-31T22:17:29Z</time>
      </trkpt>
      <trkpt lat="46.56626" lon="-1.35814">
        <ele>53</ele>
        <time>2023-10-31T22:19:35Z</time>
      </trkpt>
      <trkpt lat="46.56429" lon="-1.35621">
        <ele>50</ele>
        <time>2023-10-31T22:24:52Z</time>
      </trkpt>
      <trkpt lat="46.56187" lon="-1.35775">
        <ele>62</ele>
        <time>2023-10-31T22:30:44Z</time>
      </trkpt>
      <trkpt lat="46.56072" lon="-1.35616">
        <ele>58</ele>
        <time>2023-10-31T22:34:16Z</time>
      </trkpt>
      <trkpt lat="46.56025" lon="-1.35398">
        <ele>50</ele>
        <time>2023-10-31T22:37:46Z</time>
      </trkpt>
      <trkpt lat="46.55921" lon="-1.35166">
        <ele>45</ele>
        <time>2023-10-31T22:42:00Z</time>
      </trkpt>
      <trkpt lat="46.55791" lon="-1.35067">
        <ele>38</ele>
        <time>2023-10-31T22:45:16Z</time>
      </trkpt>
      <trkpt lat="46.5567" lon="-1.35007">
        <ele>40</ele>
        <time>2023-10-31T22:48:06Z</time>
      </trkpt>
      <trkpt lat="46.55496" lon="-1.35204">
        <ele>50</ele>
        <time>2023-10-31T22:53:01Z</time>
      </trkpt>
      <trkpt lat="46.55358" lon="-1.35256">
        <ele>56</ele>
        <time>2023-10-31T22:56:11Z</time>
      </trkpt>
      <trkpt lat="46.5521" lon="-1.35204">
        <ele>55</ele>
        <time>2023-10-31T22:59:34Z</time>
      </trkpt>
      <trkpt lat="46.55142" lon="-1.35432">
        <ele>59</ele>
        <time>2023-10-31T23:03:22Z</time>
      </trkpt>
      <trkpt lat="46.55042" lon="-1.3541">
        <ele>61</ele>
        <time>2023-10-31T23:05:37Z</time>
      </trkpt>
      <trkpt lat="46.55054" lon="-1.35312">
        <ele>60</ele>
        <time>2023-10-31T23:07:08Z</time>
      </trkpt>
      <trkpt lat="46.54938" lon="-1.35179">
        <ele>61</ele>
        <time>2023-10-31T23:10:25Z</time>
      </trkpt>
      <trkpt lat="46.54756" lon="-1.35209">
        <ele>63</ele>
        <time>2023-10-31T23:14:30Z</time>
      </trkpt>
      <trkpt lat="46.5457" lon="-1.35144">
        <ele>57</ele>
        <time>2023-10-31T23:18:45Z</time>
      </trkpt>
      <trkpt lat="46.54478" lon="-1.35595">
        <ele>55</ele>
        <time>2023-10-31T23:25:57Z</time>
      </trkpt>
      <trkpt lat="46.54047" lon="-1.35496">
        <ele>58</ele>
        <time>2023-10-31T23:35:39Z</time>
      </trkpt>
      <trkpt lat="46.53829" lon="-1.35209">
        <ele>62</ele>
        <time>2023-10-31T23:42:12Z</time>
      </trkpt>
      <trkpt lat="46.5374" lon="-1.35003">
        <ele>60</ele>
        <time>2023-10-31T23:45:55Z</time>
      </trkpt>
      <trkpt lat="46.53684" lon="-1.3481">
        <ele>61</ele>
        <time>2023-10-31T23:49:07Z</time>
      </trkpt>
      <trkpt lat="46.53613" lon="-1.34617">
        <ele>63</ele>
        <time>2023-10-31T23:52:28Z</time>
      </trkpt>
      <trkpt lat="46.53528" lon="-1.34423">
        <ele>61</ele>
        <time>2023-10-31T23:55:59Z</time>
      </trkpt>
      <trkpt lat="46.53412" lon="-1.34363">
        <ele>55</ele>
        <time>2023-10-31T23:58:44Z</time>
      </trkpt>
      <trkpt lat="46.53294" lon="-1.3423">
        <ele>38</ele>
        <time>2023-11-01T00:02:03Z</time>
      </trkpt>
      <trkpt lat="46.53306" lon="-1.3405">
        <ele>36</ele>
        <time>2023-11-01T00:04:49Z</time>
      </trkpt>
      <trkpt lat="46.53315" lon="-1.33904">
        <ele>36</ele>
        <time>2023-11-01T00:07:03Z</time>
      </trkpt>
      <trkpt lat="46.53271" lon="-1.33801">
        <ele>36</ele>
        <time>2023-11-01T00:08:55Z</time>
      </trkpt>
      <trkpt lat="46.53398" lon="-1.33677">
        <ele>29</ele>
        <time>2023-11-01T00:12:19Z</time>
      </trkpt>
      <trkpt lat="46.53516" lon="-1.33574">
        <ele>25</ele>
        <time>2023-11-01T00:15:23Z</time>
      </trkpt>
      <trkpt lat="46.53587" lon="-1.33436">
        <ele>20</ele>
        <time>2023-11-01T00:18:01Z</time>
      </trkpt>
      <trkpt lat="46.53708" lon="-1.33526">
        <ele>22</ele>
        <time>2023-11-01T00:21:02Z</time>
      </trkpt>
      <trkpt lat="46.53808" lon="-1.33526">
        <ele>22</ele>
        <time>2023-11-01T00:23:16Z</time>
      </trkpt>
      <trkpt lat="46.54047" lon="-1.33149">
        <ele>14</ele>
        <time>2023-11-01T00:31:06Z</time>
      </trkpt>
      <trkpt lat="46.54159" lon="-1.33192">
        <ele>17</ele>
        <time>2023-11-01T00:33:41Z</time>
      </trkpt>
      <trkpt lat="46.54195" lon="-1.33278">
        <ele>24</ele>
        <time>2023-11-01T00:35:13Z</time>
      </trkpt>
      <trkpt lat="46.5428" lon="-1.33342">
        <ele>28</ele>
        <time>2023-11-01T00:37:21Z</time>
      </trkpt>
      <trkpt lat="46.54363" lon="-1.33342">
        <ele>25</ele>
        <time>2023-11-01T00:39:12Z</time>
      </trkpt>
      <trkpt lat="46.54404" lon="-1.33539">
        <ele>38</ele>
        <time>2023-11-01T00:42:21Z</time>
      </trkpt>
      <trkpt lat="46.54475" lon="-1.33591">
        <ele>32</ele>
        <time>2023-11-01T00:44:07Z</time>
      </trkpt>
      <trkpt lat="46.54443" lon="-1.33638">
        <ele>36</ele>
        <time>2023-11-01T00:45:07Z</time>
      </trkpt>
      <trkpt lat="46.5449" lon="-1.33728">
        <ele>36</ele>
        <time>2023-11-01T00:46:51Z</time>
      </trkpt>
      <trkpt lat="46.54431" lon="-1.3381">
        <ele>35</ele>
        <time>2023-11-01T00:48:40Z</time>
      </trkpt>
      <trkpt lat="46.54534" lon="-1.33823">
        <ele>35</ele>
        <time>2023-11-01T00:50:58Z</time>
      </trkpt>
      <trkpt lat="46.54611" lon="-1.33926">
        <ele>27</ele>
        <time>2023-11-01T00:53:18Z</time>
      </trkpt>
      <trkpt lat="46.54643" lon="-1.34016">
        <ele>28</ele>
        <time>2023-11-01T00:54:51Z</time>
      </trkpt>
      <trkpt lat="46.54729" lon="-1.34106">
        <ele>25</ele>
        <time>2023-11-01T00:57:12Z</time>
      </trkpt>
      <trkpt lat="46.54593" lon="-1.34235">
        <ele>40</ele>
        <time>2023-11-01T01:00:49Z</time>
      </trkpt>
      <trkpt lat="46.54732" lon="-1.34072">
        <ele>23</ele>
        <time>2023-11-01T01:04:47Z</time>
      </trkpt>
      <trkpt lat="46.54602" lon="-1.3396">
        <ele>29</ele>
        <time>2023-11-01T01:08:09Z</time>
      </trkpt>
      <trkpt lat="46.54658" lon="-1.33891">
        <ele>20</ele>
        <time>2023-11-01T01:09:47Z</time>
      </trkpt>
      <trkpt lat="46.54735" lon="-1.34011">
        <ele>21</ele>
        <time>2023-11-01T01:12:17Z</time>
      </trkpt>
      <trkpt lat="46.54832" lon="-1.34084">
        <ele>20</ele>
        <time>2023-11-01T01:14:43Z</time>
      </trkpt>
      <trkpt lat="46.54903" lon="-1.34144">
        <ele>24</ele>
        <time>2023-11-01T01:16:33Z</time>
      </trkpt>
      <trkpt lat="46.55181" lon="-1.34123">
        <ele>27</ele>
        <time>2023-11-01T01:22:44Z</time>
      </trkpt>
      <trkpt lat="46.55266" lon="-1.34123">
        <ele>28</ele>
        <time>2023-11-01T01:24:38Z</time>
      </trkpt>
      <trkpt lat="46.55411" lon="-1.3408">
        <ele>38</ele>
        <time>2023-11-01T01:27:55Z</time>
      </trkpt>
      <trkpt lat="46.55384" lon="-1.34179">
        <ele>29</ele>
        <time>2023-11-01T01:29:33Z</time>
      </trkpt>
      <trkpt lat="46.55529" lon="-1.34278">
        <ele>27</ele>
        <time>2023-11-01T01:33:07Z</time>
      </trkpt>
      <trkpt lat="46.55582" lon="-1.34235">
        <ele>33</ele>
        <time>2023-11-01T01:34:27Z</time>
      </trkpt>
      <trkpt lat="46.55688" lon="-1.3426">
        <ele>36</ele>
        <time>2023-11-01T01:36:51Z</time>
      </trkpt>
      <trkpt lat="46.55771" lon="-1.34393">
        <ele>36</ele>
        <time>2023-11-01T01:39:36Z</time>
      </trkpt>
      <trkpt lat="46.55753" lon="-1.34484">
        <ele>33</ele>
        <time>2023-11-01T01:41:02Z</time>
      </trkpt>
      <trkpt lat="46.5588" lon="-1.34724">
        <ele>29</ele>
        <time>2023-11-01T01:45:40Z</time>
      </trkpt>
      <trkpt lat="46.55951" lon="-1.3478">
        <ele>28</ele>
        <time>2023-11-01T01:47:28Z</time>
      </trkpt>
      <trkpt lat="46.56075" lon="-1.34947">
        <ele>26</ele>
        <time>2023-11-01T01:51:14Z</time>
      </trkpt>
      <trkpt lat="46.56193" lon="-1.34994">
        <ele>28</ele>
        <time>2023-11-01T01:53:57Z</time>
      </trkpt>
      <trkpt lat="46.56258" lon="-1.34943">
        <ele>33</ele>
        <time>2023-11-01T01:55:36Z</time>
      </trkpt>
      <trkpt lat="46.56302" lon="-1.34792">
        <ele>39</ele>
        <time>2023-11-01T01:58:06Z</time>
      </trkpt>
      <trkpt lat="46.56384" lon="-1.34715">
        <ele>40</ele>
        <time>2023-11-01T02:00:16Z</time>
      </trkpt>
      <trkpt lat="46.56461" lon="-1.34835">
        <ele>41</ele>
        <time>2023-11-01T02:02:47Z</time>
      </trkpt>
      <trkpt lat="46.5657" lon="-1.349">
        <ele>41</ele>
        <time>2023-11-01T02:05:24Z</time>
      </trkpt>
      <trkpt lat="46.56644" lon="-1.34977">
        <ele>37</ele>
        <time>2023-11-01T02:07:25Z</time>
      </trkpt>
      <trkpt lat="46.56747" lon="-1.34994">
        <ele>34</ele>
        <time>2023-11-01T02:09:44Z</time>
      </trkpt>
      <trkpt lat="46.56777" lon="-1.35097">
        <ele>30</ele>
        <time>2023-11-01T02:11:26Z</time>
      </trkpt>
      <trkpt lat="46.56842" lon="-1.35144">
        <ele>34</ele>
        <time>2023-11-01T02:13:03Z</time>
      </trkpt>
      <trkpt lat="46.5688" lon="-1.35101">
        <ele>37</ele>
        <time>2023-11-01T02:14:08Z</time>
      </trkpt>
      <trkpt lat="46.56969" lon="-1.35342">
        <ele>42</ele>
        <time>2023-11-01T02:18:19Z</time>
      </trkpt>
      <trkpt lat="46.57084" lon="-1.35252">
        <ele>44</ele>
        <time>2023-11-01T02:21:13Z</time>
      </trkpt>
      <trkpt lat="46.57155" lon="-1.35252">
        <ele>45</ele>
        <time>2023-11-01T02:22:48Z</time>
      </trkpt>
      <trkpt lat="46.57222" lon="-1.35522">
        <ele>39</ele>
        <time>2023-11-01T02:27:11Z</time>
      </trkpt>
      <trkpt lat="46.57317" lon="-1.35531">
        <ele>33</ele>
        <time>2023-11-01T02:29:18Z</time>
      </trkpt>
      <trkpt lat="46.57447" lon="-1.35406">
        <ele>37</ele>
        <time>2023-11-01T02:32:46Z</time>
      </trkpt>
      <trkpt lat="46.57579" lon="-1.35368">
        <ele>36</ele>
        <time>2023-11-01T02:35:45Z</time>
      </trkpt>
      <trkpt lat="46.57674" lon="-1.35453">
        <ele>34</ele>
        <time>2023-11-01T02:38:14Z</time>
      </trkpt>
      <trkpt lat="46.5778" lon="-1.35368">
        <ele>49</ele>
        <time>2023-11-01T02:40:56Z</time>
      </trkpt>
      <trkpt lat="46.57821" lon="-1.35415">
        <ele>49</ele>
        <time>2023-11-01T02:42:05Z</time>
      </trkpt>
      <trkpt lat="46.57824" lon="-1.35539">
        <ele>43</ele>
        <time>2023-11-01T02:43:59Z</time>
      </trkpt>
      <trkpt lat="46.57863" lon="-1.35677">
        <ele>41</ele>
        <time>2023-11-01T02:46:16Z</time>
      </trkpt>
      <trkpt lat="46.57833" lon="-1.35797">
        <ele>36</ele>
        <time>2023-11-01T02:48:13Z</time>
      </trkpt>
      <trkpt lat="46.5791" lon="-1.36041">
        <ele>38</ele>
        <time>2023-11-01T02:52:19Z</time>
      </trkpt>
      <trkpt lat="46.58034" lon="-1.36243">
        <ele>41</ele>
        <time>2023-11-01T02:56:28Z</time>
      </trkpt>
      <trkpt lat="46.58087" lon="-1.3626">
        <ele>40</ele>
        <time>2023-11-01T02:57:40Z</time>
      </trkpt>
      <trkpt lat="46.58199" lon="-1.36153">
        <ele>40</ele>
        <time>2023-11-01T03:00:39Z</time>
      </trkpt>
      <trkpt lat="46.58261" lon="-1.36355">
        <ele>31</ele>
        <time>2023-11-01T03:04:02Z</time>
      </trkpt>
      <trkpt lat="46.58314" lon="-1.36436">
        <ele>35</ele>
        <time>2023-11-01T03:05:45Z</time>
      </trkpt>
      <trkpt lat="46.58388" lon="-1.36573">
        <ele>43</ele>
        <time>2023-11-01T03:08:24Z</time>
      </trkpt>
    </trkseg>
  </trk>
</gpx>